Time;durP1;ratioP1;P1;durP2;ratioP2;P2;SDS_P1;SDS_P2;PMS_P1;PMS_P2;Temp;Humidity;BMP_temperature;BMP_pressure;BME280_temperature;BME280_humidity;BME280_pressure;Samples;Min_cycle;Max_cycle;Signal;HPM_P1;HPM_P2
2022/01/17 00:00:18;;;;;;;0.00;0.00;;;;;;;0.77;68.31;99644.44;5091904;28;20124;-78
2022/01/17 00:02:46;;;;;;;0.00;0.00;;;;;;;0.89;68.15;99668.41;5090413;28;20027;-77
2022/01/17 00:05:12;;;;;;;0.00;0.00;;;;;;;0.77;68.26;99649.72;5098593;28;20036;-79
2022/01/17 00:07:38;;;;;;;0.00;0.00;;;;;;;0.90;67.96;99666.56;5103438;28;20042;-77
2022/01/17 00:10:05;;;;;;;0.00;0.00;;;;;;;0.86;68.27;99666.16;5110558;28;20063;-77
2022/01/17 00:12:33;;;;;;;0.00;0.00;;;;;;;0.86;68.32;99665.34;5098340;28;20031;-76
2022/01/17 00:14:59;;;;;;;0.00;0.00;;;;;;;0.85;68.56;99664.50;5109906;28;20108;-77
2022/01/17 00:17:32;;;;;;;0.00;0.00;;;;;;;0.82;68.70;99658.84;5110383;28;20471;-76
2022/01/17 00:20:07;;;;;;;0.00;0.00;;;;;;;0.70;68.82;99635.72;5116638;27;20382;-75
2022/01/17 00:22:32;;;;;;;0.00;0.00;;;;;;;0.80;68.63;99659.84;5111833;27;20104;-76
2022/01/17 00:24:58;;;;;;;0.00;0.00;;;;;;;0.79;68.58;99657.41;5109784;28;20379;-75
2022/01/17 00:27:23;;;;;;;0.00;0.00;;;;;;;0.82;68.76;99661.47;5099632;27;20123;-76
2022/01/17 00:29:48;;;;;;;0.00;0.00;;;;;;;0.76;68.67;99655.97;5101046;28;20035;-75
2022/01/17 00:32:14;;;;;;;0.00;0.00;;;;;;;0.79;68.52;99666.13;5090795;28;20122;-75
2022/01/17 00:34:39;;;;;;;0.00;0.00;;;;;;;0.81;68.71;99663.31;5109888;28;20399;-76
2022/01/17 00:37:05;;;;;;;0.00;0.00;;;;;;;0.83;68.59;99666.56;5104698;28;20035;-76
2022/01/17 00:39:30;;;;;;;0.00;0.00;;;;;;;0.51;68.23;99623.28;5101009;28;20467;-74
2022/01/17 00:41:56;;;;;;;0.00;0.00;;;;;;;0.73;68.34;99652.94;5111628;28;20084;-74
2022/01/17 00:44:23;;;;;;;0.00;0.00;;;;;;;0.54;68.86;99641.28;5110175;28;20104;-73
2022/01/17 00:46:50;;;;;;;0.00;0.00;;;;;;;0.59;69.12;99659.97;5110144;28;20044;-75
2022/01/17 00:49:15;;;;;;;0.00;0.00;;;;;;;0.53;69.01;99658.13;5111049;28;20027;-74
2022/01/17 00:51:42;;;;;;;0.00;0.00;;;;;;;0.50;69.26;99653.22;5111022;28;20127;-74
2022/01/17 00:54:08;;;;;;;0.00;0.00;;;;;;;0.43;69.11;99637.41;5109612;28;20066;-73
2022/01/17 00:56:33;;;;;;;0.00;0.00;;;;;;;0.49;69.17;99655.06;5109824;28;20655;-74
2022/01/17 00:58:59;;;;;;;1.00;1.00;;;;;;;0.42;69.84;99636.59;5110685;28;20043;-73
2022/01/17 01:01:24;;;;;;;0.00;0.00;;;;;;;0.17;69.54;99611.75;5110862;28;20180;-73
2022/01/17 01:03:49;;;;;;;0.00;0.00;;;;;;;0.40;69.63;99640.44;5111582;28;20419;-73
2022/01/17 01:06:15;;;;;;;0.00;0.00;;;;;;;0.41;69.88;99634.16;5111478;28;20036;-72
2022/01/17 01:08:41;;;;;;;0.00;0.00;;;;;;;0.37;69.98;99632.94;5102119;28;20115;-72
2022/01/17 01:11:06;;;;;;;0.00;0.00;;;;;;;0.36;69.64;99618.94;5089848;28;20047;-76
2022/01/17 01:13:32;;;;;;;0.00;0.00;;;;;;;0.35;70.00;99619.94;5103897;28;20396;-76
2022/01/17 01:16:11;;;;;;;0.00;0.00;;;;;;;0.32;69.83;99615.91;5109805;28;20032;-77
2022/01/17 01:18:55;;;;;;;0.00;0.00;;;;;;;0.29;69.73;99597.06;5105932;28;20027;-74
2022/01/17 01:29:44;;;;;;;0.00;0.00;;;;;;;0.34;69.74;99586.75;5090453;28;20261;-76
2022/01/17 01:32:10;;;;;;;0.00;0.00;;;;;;;0.29;69.63;99568.13;5089580;28;20402;-75
2022/01/17 01:34:40;;;;;;;0.00;0.00;;;;;;;0.30;69.24;99567.09;5096852;28;20038;-75
2022/01/17 01:37:06;;;;;;;0.00;0.00;;;;;;;0.38;69.62;99574.00;5111115;28;20147;-76
2022/01/17 01:39:33;;;;;;;0.00;0.00;;;;;;;0.24;69.52;99552.13;5093795;28;20517;-77
2022/01/17 01:41:59;;;;;;;0.00;0.00;;;;;;;0.30;69.00;99569.75;5107036;28;20470;-76
2022/01/17 01:44:26;;;;;;;0.00;0.00;;;;;;;0.33;69.02;99558.84;5109342;28;20522;-76
2022/01/17 01:46:55;;;;;;;0.00;0.00;;;;;;;0.29;68.70;99561.06;5110971;28;20035;-78
2022/01/17 01:49:21;;;;;;;0.00;0.00;;;;;;;0.22;68.49;99543.59;5113703;28;20062;-77
2022/01/17 01:51:47;;;;;;;0.00;0.00;;;;;;;0.29;68.41;99552.34;5109705;28;20075;-78
2022/01/17 01:54:13;;;;;;;0.00;0.00;;;;;;;0.26;68.09;99534.31;5095214;28;20056;-77
2022/01/17 01:56:45;;;;;;;0.00;0.00;;;;;;;0.28;68.17;99542.81;5112541;28;20035;-78
2022/01/17 01:59:12;;;;;;;0.00;0.00;;;;;;;0.28;67.47;99535.75;5112990;28;20024;-77
2022/01/17 02:01:38;;;;;;;0.00;0.00;;;;;;;0.23;68.12;99525.00;5113198;28;20027;-77
2022/01/17 02:04:04;;;;;;;0.08;0.08;;;;;;;0.20;68.18;99520.13;5113359;28;20030;-78
2022/01/17 02:06:32;;;;;;;0.00;0.00;;;;;;;0.26;68.44;99521.16;5114176;28;20031;-76
2022/01/17 02:08:58;;;;;;;0.00;0.00;;;;;;;0.24;68.53;99515.28;5112730;28;20063;-77
2022/01/17 02:11:23;;;;;;;0.00;0.00;;;;;;;0.21;68.91;99516.50;5111471;28;20066;-76
2022/01/17 02:13:50;;;;;;;0.00;0.00;;;;;;;0.25;68.40;99514.28;5092596;28;20508;-75
2022/01/17 02:16:16;;;;;;;0.00;0.00;;;;;;;0.17;68.61;99509.97;5092408;28;20032;-77
2022/01/17 02:18:45;;;;;;;0.00;0.00;;;;;;;0.20;68.36;99499.09;5092722;28;20080;-75
2022/01/17 02:21:33;;;;;;;0.00;0.00;;;;;;;0.27;68.01;99513.06;5106309;28;20398;-76
2022/01/17 02:24:00;;;;;;;0.00;0.00;;;;;;;0.20;68.12;99500.91;5113043;28;20567;-76
2022/01/17 02:26:26;;;;;;;0.00;0.00;;;;;;;0.25;68.49;99517.72;5101235;28;20085;-75
2022/01/17 02:28:55;;;;;;;0.00;0.00;;;;;;;0.23;68.21;99511.03;5100245;28;20498;-75
2022/01/17 02:31:22;;;;;;;0.00;0.00;;;;;;;0.12;68.53;99496.63;5113214;28;20114;-75
2022/01/17 02:33:49;;;;;;;0.00;0.00;;;;;;;0.18;68.17;99508.19;5110907;28;20063;-76
2022/01/17 02:36:15;;;;;;;0.00;0.00;;;;;;;0.16;68.52;99511.00;5106175;28;20032;-77
2022/01/17 02:38:40;;;;;;;0.00;0.00;;;;;;;0.11;68.54;99508.97;5096305;28;20028;-77
2022/01/17 02:41:06;;;;;;;0.00;0.00;;;;;;;0.13;68.61;99508.75;5113709;28;20538;-77
2022/01/17 02:43:32;;;;;;;0.00;0.00;;;;;;;0.04;68.31;99491.50;5111326;28;20156;-77
2022/01/17 02:48:30;;;;;;;0.00;0.00;;;;;;;0.03;68.54;99509.13;5113803;28;20398;-79
2022/01/17 02:50:57;;;;;;;0.00;0.00;;;;;;;-0.05;68.63;99504.03;5112426;28;20028;-79
2022/01/17 02:53:23;;;;;;;0.00;0.00;;;;;;;-0.11;68.34;99500.38;5113371;28;20048;-78
2022/01/17 02:56:09;;;;;;;0.00;0.00;;;;;;;-0.14;68.82;99494.69;5095361;28;20032;-78
2022/01/17 02:58:36;;;;;;;0.00;0.00;;;;;;;-0.21;68.67;99484.97;5111731;28;20059;-78
2022/01/17 03:01:05;;;;;;;0.00;0.00;;;;;;;-0.23;68.84;99489.59;5102166;28;20823;-80
2022/01/17 03:03:31;;;;;;;0.00;0.00;;;;;;;-0.26;68.85;99483.91;5091728;28;20024;-77
2022/01/17 03:05:58;;;;;;;0.00;0.00;;;;;;;-0.27;68.87;99488.38;5093153;28;20024;-75
2022/01/17 03:08:26;;;;;;;0.00;0.00;;;;;;;-0.42;68.76;99464.81;5092015;28;20027;-75
2022/01/17 03:10:53;;;;;;;0.00;0.00;;;;;;;-0.35;68.65;99488.50;5091364;28;20390;-75
2022/01/17 03:13:24;;;;;;;0.00;0.00;;;;;;;-0.33;68.96;99486.47;5092719;28;20479;-75
2022/01/17 03:15:56;;;;;;;0.00;0.00;;;;;;;-0.43;69.08;99480.78;5092669;28;20032;-76
2022/01/17 03:18:23;;;;;;;0.00;0.00;;;;;;;-0.51;69.01;99464.16;5109050;28;20028;-75
2022/01/17 03:20:49;;;;;;;0.00;0.00;;;;;;;-0.50;68.99;99473.66;5111484;28;20398;-74
2022/01/17 03:23:15;;;;;;;0.00;0.00;;;;;;;-0.45;69.24;99480.16;5113168;28;20039;-73
2022/01/17 03:25:40;;;;;;;0.00;0.00;;;;;;;-0.47;69.04;99472.47;5111603;28;20028;-72
2022/01/17 03:28:06;;;;;;;0.00;0.00;;;;;;;-0.45;69.16;99475.72;5113053;28;20032;-74
2022/01/17 03:30:33;;;;;;;0.00;0.00;;;;;;;-0.58;69.40;99457.25;5112509;28;20039;-72
2022/01/17 03:33:00;;;;;;;0.00;0.00;;;;;;;-0.56;69.35;99473.59;5112946;28;20034;-73
2022/01/17 03:35:26;;;;;;;0.00;0.00;;;;;;;-0.56;69.43;99470.97;5111281;28;20035;-73
2022/01/17 03:37:51;;;;;;;0.00;0.00;;;;;;;-0.51;69.47;99476.50;5092434;28;20031;-74
2022/01/17 03:40:17;;;;;;;0.00;0.00;;;;;;;-0.74;69.36;99450.47;5092340;28;20115;-75
2022/01/17 03:42:42;;;;;;;0.00;0.00;;;;;;;-0.69;69.51;99455.97;5092395;28;20475;-72
2022/01/17 03:45:09;;;;;;;0.00;0.00;;;;;;;-0.69;69.56;99469.09;5092097;28;20085;-73
2022/01/17 03:47:36;;;;;;;0.10;0.10;;;;;;;-0.73;69.59;99467.84;5091958;28;20065;-73
2022/01/17 03:50:05;;;;;;;0.00;0.00;;;;;;;-0.70;70.05;99483.22;5092252;28;20028;-73
2022/01/17 03:52:30;;;;;;;0.00;0.00;;;;;;;-0.67;70.30;99480.22;5090602;28;20510;-73
2022/01/17 03:54:55;;;;;;;0.00;0.00;;;;;;;-0.76;70.02;99460.34;5106957;28;20020;-72
2022/01/17 03:57:21;;;;;;;0.55;0.30;;;;;;;-0.69;70.02;99476.97;5112728;28;20035;-72
2022/01/17 03:59:46;;;;;;;0.00;0.00;;;;;;;-0.70;70.23;99465.63;5101510;28;20039;-72
2022/01/17 04:02:12;;;;;;;0.00;0.00;;;;;;;-0.72;70.34;99472.91;5092325;28;20028;-72
2022/01/17 04:04:37;;;;;;;0.00;0.00;;;;;;;-0.77;70.13;99448.22;5090438;28;20035;-73
2022/01/17 04:07:03;;;;;;;0.00;0.00;;;;;;;-0.82;70.26;99444.38;5091628;28;20024;-73
2022/01/17 04:09:29;;;;;;;0.00;0.00;;;;;;;-0.80;69.95;99452.03;5092098;28;20027;-74
2022/01/17 04:11:54;;;;;;;0.00;0.00;;;;;;;-0.92;70.17;99443.06;5091832;28;20081;-75
2022/01/17 04:14:19;;;;;;;0.00;0.00;;;;;;;-0.83;70.25;99461.13;5091417;28;20032;-75
2022/01/17 04:16:45;;;;;;;0.03;0.03;;;;;;;-1.05;69.86;99436.72;5090266;28;20031;-75
2022/01/17 04:19:11;;;;;;;0.05;0.05;;;;;;;-0.99;70.00;99456.13;5094833;28;20476;-75
2022/01/17 04:21:37;;;;;;;0.00;0.00;;;;;;;-1.06;69.96;99458.72;5110278;28;20034;-74
2022/01/17 04:24:03;;;;;;;0.00;0.00;;;;;;;-1.11;70.14;99461.13;5107530;28;20102;-73
2022/01/17 04:26:28;;;;;;;0.00;0.00;;;;;;;-1.14;70.40;99472.78;5091258;28;20036;-73
2022/01/17 04:28:54;;;;;;;0.08;0.08;;;;;;;-1.16;69.70;99474.78;5091637;28;20097;-73
2022/01/17 04:31:20;;;;;;;0.00;0.00;;;;;;;-1.26;70.28;99458.53;5103869;28;20035;-72
2022/01/17 04:33:46;;;;;;;0.00;0.00;;;;;;;-1.44;70.03;99432.75;5111786;28;20031;-73
2022/01/17 04:36:11;;;;;;;0.00;0.00;;;;;;;-1.25;70.46;99469.88;5111464;28;20039;-73
2022/01/17 04:38:37;;;;;;;0.00;0.00;;;;;;;-1.29;70.53;99462.34;5108425;28;20535;-72
2022/01/17 04:41:12;;;;;;;0.00;0.00;;;;;;;-1.38;70.41;99466.13;5090025;28;20036;-73
2022/01/17 04:46:04;;;;;;;0.00;0.00;;;;;;;-1.59;69.95;99437.25;5105177;28;20035;-75
2022/01/17 04:48:31;;;;;;;0.00;0.00;;;;;;;-1.38;70.14;99479.25;5089991;28;20039;-74
2022/01/17 04:50:58;;;;;;;0.00;0.00;;;;;;;-1.37;70.29;99483.47;5093708;28;20035;-75
2022/01/17 04:53:25;;;;;;;0.00;0.00;;;;;;;-1.42;70.11;99474.53;5097412;28;20048;-74
2022/01/17 04:55:50;;;;;;;0.00;0.00;;;;;;;-1.44;70.60;99472.13;5111298;28;20097;-71
2022/01/17 04:58:16;;;;;;;0.10;0.10;;;;;;;-1.43;70.55;99484.22;5111274;28;20108;-70
2022/01/17 05:00:48;;;;;;;0.00;0.00;;;;;;;-1.63;70.25;99457.78;5098494;28;20077;-72
2022/01/17 05:03:22;;;;;;;0.00;0.00;;;;;;;-1.46;70.80;99485.41;5091012;28;20020;-73
2022/01/17 05:05:48;;;;;;;0.00;0.00;;;;;;;-1.43;70.52;99481.59;5089529;28;20040;-71
2022/01/17 05:08:15;;;;;;;0.00;0.00;;;;;;;-1.53;70.85;99463.53;5089978;28;20118;-71
2022/01/17 05:10:46;;;;;;;0.00;0.00;;;;;;;-1.46;70.81;99474.09;5091068;28;20082;-71
2022/01/17 05:13:18;;;;;;;0.00;0.00;;;;;;;-1.55;70.39;99468.16;5091043;28;20080;-72
2022/01/17 05:15:49;;;;;;;0.00;0.00;;;;;;;-1.49;70.99;99471.84;5090804;28;20101;-71
2022/01/17 05:20:49;;;;;;;0.00;0.00;;;;;;;-1.61;70.90;99450.56;5112639;28;20028;-71
2022/01/17 05:23:14;;;;;;;0.00;0.00;;;;;;;-1.63;70.81;99447.31;5115169;28;20027;-72
2022/01/17 05:25:39;;;;;;;0.00;0.00;;;;;;;-1.57;71.07;99457.03;5106998;28;20495;-72
2022/01/17 05:28:05;;;;;;;0.00;0.00;;;;;;;-1.57;71.23;99458.88;5096520;28;20035;-73
2022/01/17 05:30:31;;;;;;;0.00;0.00;;;;;;;-1.50;71.17;99467.59;5103336;28;20551;-72
2022/01/17 05:33:00;;;;;;;0.30;0.30;;;;;;;-1.83;71.65;99403.34;5106913;28;20055;-71
2022/01/17 05:35:25;;;;;;;0.30;0.20;;;;;;;-1.56;71.73;99456.06;5099845;28;20479;-72
2022/01/17 05:37:52;;;;;;;0.00;0.00;;;;;;;-1.61;71.60;99446.13;5094487;28;20024;-72
2022/01/17 05:40:18;;;;;;;0.00;0.00;;;;;;;-1.57;71.60;99451.81;5093278;28;20470;-72
2022/01/17 05:42:44;;;;;;;0.00;0.00;;;;;;;-1.52;71.47;99459.13;5094536;28;20026;-72
2022/01/17 05:45:11;;;;;;;0.00;0.00;;;;;;;-1.58;71.51;99441.50;5092878;28;20445;-72
2022/01/17 05:47:36;;;;;;;0.00;0.00;;;;;;;-1.51;71.73;99447.63;5093142;28;20027;-72
2022/01/17 05:50:03;;;;;;;1.38;1.27;;;;;;;-1.54;71.60;99429.63;5093266;28;20043;-72
2022/01/17 05:52:30;;;;;;;0.52;0.52;;;;;;;-1.77;71.55;99381.59;5092818;28;20043;-72
2022/01/17 05:54:56;;;;;;;0.40;0.40;;;;;;;-1.56;71.71;99421.13;5094516;28;20038;-72
2022/01/17 05:57:22;;;;;;;0.00;0.00;;;;;;;-1.51;71.77;99426.66;5094578;28;20407;-72
2022/01/17 05:59:47;;;;;;;0.00;0.00;;;;;;;-1.45;71.73;99418.81;5094576;28;20074;-72
2022/01/17 06:02:13;;;;;;;0.30;0.30;;;;;;;-1.43;72.06;99433.56;5093757;28;20545;-72
2022/01/17 06:04:38;;;;;;;0.00;0.00;;;;;;;-1.44;72.07;99427.53;5091984;28;20024;-72
2022/01/17 06:07:04;;;;;;;0.00;0.00;;;;;;;-1.46;71.96;99429.50;5093655;28;20096;-72
2022/01/17 06:09:29;;;;;;;0.45;0.45;;;;;;;-1.40;71.97;99425.31;5093583;28;20036;-73
2022/01/17 06:11:55;;;;;;;0.00;0.00;;;;;;;-1.31;71.34;99447.81;5093187;28;20084;-72
2022/01/17 06:14:21;;;;;;;0.40;0.40;;;;;;;-1.30;71.61;99420.56;5092897;28;20237;-72
2022/01/17 06:16:47;;;;;;;0.00;0.00;;;;;;;-1.29;71.21;99416.94;5093095;28;20031;-72
2022/01/17 06:19:13;;;;;;;0.00;0.00;;;;;;;-1.24;71.38;99413.75;5093369;28;20027;-73
2022/01/17 06:21:39;;;;;;;0.00;0.00;;;;;;;-1.20;70.84;99410.53;5093122;28;20020;-72
2022/01/17 06:24:06;;;;;;;0.00;0.00;;;;;;;-1.03;70.68;99436.53;5092966;28;20028;-71
2022/01/17 06:26:33;;;;;;;0.00;0.00;;;;;;;-1.00;70.37;99418.59;5093191;28;20067;-73
2022/01/17 06:28:59;;;;;;;0.00;0.00;;;;;;;-0.87;69.89;99436.22;5092916;28;20032;-73
2022/01/17 06:31:24;;;;;;;0.00;0.00;;;;;;;-0.78;69.88;99431.66;5093036;28;20047;-71
2022/01/17 06:33:49;;;;;;;0.43;0.43;;;;;;;-0.70;70.02;99438.56;5092119;28;20020;-72
2022/01/17 06:36:15;;;;;;;0.00;0.00;;;;;;;-0.76;69.80;99420.97;5093036;28;20506;-72
2022/01/17 06:38:40;;;;;;;0.00;0.00;;;;;;;-0.62;69.49;99417.41;5092710;28;20031;-72
2022/01/17 06:41:06;;;;;;;0.00;0.00;;;;;;;-0.56;68.79;99426.31;5092878;28;20035;-72
2022/01/17 06:43:31;;;;;;;0.00;0.00;;;;;;;-0.42;68.34;99443.78;5092817;28;20020;-72
2022/01/17 06:45:57;;;;;;;0.40;0.40;;;;;;;-0.34;68.53;99437.56;5092289;28;20028;-72
2022/01/17 06:48:22;;;;;;;0.00;0.00;;;;;;;-0.26;68.21;99439.22;5092738;28;20032;-73
2022/01/17 06:50:48;;;;;;;0.00;0.00;;;;;;;-0.27;67.36;99416.56;5092539;28;20495;-71
2022/01/17 06:53:13;;;;;;;0.00;0.00;;;;;;;-0.11;67.98;99421.50;5109213;28;20051;-72
2022/01/17 06:55:39;;;;;;;0.00;0.00;;;;;;;-0.13;67.97;99405.09;5113259;28;20092;-71
2022/01/17 06:58:04;;;;;;;0.22;0.22;;;;;;;0.03;67.40;99411.03;5112719;28;20096;-72
2022/01/17 07:00:30;;;;;;;0.10;0.10;;;;;;;0.00;67.41;99399.09;5112809;28;20100;-72
2022/01/17 07:02:55;;;;;;;6.22;2.05;;;;;;;0.20;67.92;99400.97;5111276;28;20034;-72
2022/01/17 07:05:21;;;;;;;0.00;0.00;;;;;;;0.31;67.28;99411.69;5113066;28;20031;-73
2022/01/17 07:07:46;;;;;;;0.00;0.00;;;;;;;0.30;67.77;99391.66;5112519;28;20059;-73
2022/01/17 07:10:11;;;;;;;0.00;0.00;;;;;;;0.47;66.75;99389.44;5112844;28;20391;-73
2022/01/17 07:12:37;;;;;;;0.13;0.13;;;;;;;0.61;66.66;99398.19;5113197;28;20031;-72
2022/01/17 07:15:04;;;;;;;0.73;0.73;;;;;;;0.59;65.68;99373.88;5113053;28;20088;-72
2022/01/17 07:17:30;;;;;;;0.00;0.00;;;;;;;0.80;65.84;99377.31;5113213;28;20056;-72
2022/01/17 07:19:55;;;;;;;0.35;0.35;;;;;;;0.72;65.15;99344.13;5112631;28;20085;-72
2022/01/17 07:22:20;;;;;;;0.00;0.00;;;;;;;0.96;65.26;99362.91;5113199;28;20032;-72
2022/01/17 07:24:47;;;;;;;0.00;0.00;;;;;;;0.95;64.36;99348.94;5112861;28;20089;-72
2022/01/17 07:27:14;;;;;;;0.00;0.00;;;;;;;1.18;65.13;99367.94;5113074;28;20106;-71
2022/01/17 07:29:40;;;;;;;0.00;0.00;;;;;;;1.06;64.22;99336.97;5111616;28;20509;-72
2022/01/17 07:32:07;;;;;;;0.00;0.00;;;;;;;1.26;64.17;99368.53;5112707;28;20138;-71
2022/01/17 07:34:33;;;;;;;0.38;0.32;;;;;;;1.27;63.99;99361.44;5112965;28;20111;-71
2022/01/17 07:36:59;;;;;;;0.00;0.00;;;;;;;1.46;63.85;99367.66;5112434;28;20118;-71
2022/01/17 07:39:26;;;;;;;0.00;0.00;;;;;;;1.47;63.62;99340.28;5112705;28;20020;-71
2022/01/17 07:41:52;;;;;;;0.00;0.00;;;;;;;1.64;61.84;99353.00;5112522;28;20103;-71
2022/01/17 07:44:21;;;;;;;0.00;0.00;;;;;;;1.66;62.48;99335.97;5110376;28;20083;-71
2022/01/17 07:46:50;;;;;;;0.00;0.00;;;;;;;1.78;62.00;99335.28;5112164;28;20024;-71
2022/01/17 07:49:19;;;;;;;0.32;0.32;;;;;;;1.77;62.67;99308.13;5112684;28;20028;-71
2022/01/17 07:51:48;;;;;;;0.30;0.30;;;;;;;1.93;61.32;99312.06;5112223;28;20056;-70
2022/01/17 07:54:15;;;;;;;0.55;0.55;;;;;;;1.97;60.59;99305.34;5112555;28;20032;-73
2022/01/17 07:56:42;;;;;;;0.57;0.57;;;;;;;2.15;61.23;99317.00;5112511;28;20023;-72
2022/01/17 07:59:09;;;;;;;0.00;0.00;;;;;;;2.20;60.69;99331.16;5111617;28;20024;-72
2022/01/17 08:01:36;;;;;;;0.00;0.00;;;;;;;2.22;60.44;99337.06;5092080;28;20035;-72
2022/01/17 08:04:03;;;;;;;0.17;0.17;;;;;;;2.40;60.16;99338.97;5091810;28;20619;-72
2022/01/17 08:06:28;;;;;;;0.00;0.00;;;;;;;2.50;58.83;99370.16;5091624;28;20028;-71
2022/01/17 08:08:55;;;;;;;0.00;0.00;;;;;;;2.57;59.45;99383.28;5090393;28;20026;-71
2022/01/17 08:11:21;;;;;;;0.63;0.60;;;;;;;2.73;58.78;99411.00;5091857;28;20027;-71
2022/01/17 08:13:47;;;;;;;0.00;0.00;;;;;;;2.88;58.91;99431.78;5091656;28;20024;-71
2022/01/17 08:16:14;;;;;;;0.00;0.00;;;;;;;3.01;58.77;99444.91;5091762;28;20453;-71
2022/01/17 08:18:41;;;;;;;0.05;0.05;;;;;;;3.06;58.79;99454.03;5090393;28;20403;-72
2022/01/17 08:21:06;;;;;;;0.00;0.00;;;;;;;3.27;59.39;99461.56;5091429;28;20032;-70
2022/01/17 08:23:31;;;;;;;0.20;0.20;;;;;;;3.30;59.07;99482.28;5091815;28;20089;-72
2022/01/17 08:25:57;;;;;;;0.00;0.00;;;;;;;3.46;58.30;99493.31;5091077;28;20381;-72
2022/01/17 08:28:22;;;;;;;0.00;0.00;;;;;;;3.58;58.39;99488.13;5090325;28;20031;-70
2022/01/17 08:30:48;;;;;;;0.00;0.00;;;;;;;3.67;58.24;99428.59;5091418;28;20024;-71
2022/01/17 08:33:13;;;;;;;0.03;0.03;;;;;;;3.86;58.16;99440.00;5091230;28;20024;-71
2022/01/17 08:35:39;;;;;;;0.32;0.32;;;;;;;3.92;58.45;99419.75;5091385;28;20035;-72
2022/01/17 08:38:04;;;;;;;0.40;0.40;;;;;;;4.03;57.97;99387.28;5090996;28;20479;-70
2022/01/17 08:40:30;;;;;;;0.05;0.05;;;;;;;4.14;57.70;99409.53;5091110;28;20035;-70
2022/01/17 08:42:56;;;;;;;0.00;0.00;;;;;;;4.18;57.98;99384.22;5091058;28;20032;-72
2022/01/17 08:45:24;;;;;;;0.00;0.00;;;;;;;4.37;58.04;99365.59;5091056;28;20031;-72
2022/01/17 08:47:51;;;;;;;0.10;0.10;;;;;;;4.47;57.46;99379.13;5091070;28;20036;-70
2022/01/17 08:50:21;;;;;;;0.20;0.20;;;;;;;4.57;57.95;99362.66;5091292;28;20028;-73
2022/01/17 08:52:48;;;;;;;0.10;0.10;;;;;;;4.70;57.17;99343.91;5089356;28;20119;-70
2022/01/17 08:55:15;;;;;;;0.80;0.65;;;;;;;4.83;57.30;99315.56;5090817;28;20059;-70
2022/01/17 08:57:40;;;;;;;1.25;1.25;;;;;;;4.91;57.00;99325.81;5091293;28;20035;-71
2022/01/17 09:00:10;;;;;;;0.00;0.00;;;;;;;4.96;57.10;99302.06;5096494;28;20405;-71
2022/01/17 09:02:36;;;;;;;0.00;0.00;;;;;;;5.08;56.46;99296.75;5111639;28;20106;-71
2022/01/17 09:05:02;;;;;;;4.13;1.55;;;;;;;5.17;56.79;99305.16;5111183;28;20027;-71
2022/01/17 09:07:28;;;;;;;0.10;0.10;;;;;;;5.24;55.99;99277.47;5111419;28;20038;-71
2022/01/17 09:09:53;;;;;;;0.28;0.28;;;;;;;5.42;54.55;99273.84;5110855;28;20028;-71
2022/01/17 09:12:18;;;;;;;0.08;0.08;;;;;;;5.44;53.74;99231.97;5111388;28;20059;-71
2022/01/17 09:14:44;;;;;;;1.27;1.27;;;;;;;5.64;53.39;99237.88;5111203;28;20471;-71
2022/01/17 09:17:10;;;;;;;0.90;0.90;;;;;;;5.83;52.70;99252.53;5111348;28;20519;-71
2022/01/17 09:19:38;;;;;;;0.00;0.00;;;;;;;5.97;52.19;99245.09;5111117;28;20088;-71
2022/01/17 09:22:05;;;;;;;0.00;0.00;;;;;;;6.08;50.74;99254.06;5111091;28;20107;-70
2022/01/17 09:24:31;;;;;;;0.00;0.00;;;;;;;6.13;50.03;99254.13;5110050;28;20391;-71
2022/01/17 09:26:56;;;;;;;0.38;0.38;;;;;;;6.30;49.23;99263.94;5111004;28;20031;-71
2022/01/17 09:29:21;;;;;;;0.03;0.03;;;;;;;6.45;49.38;99279.31;5111304;28;20035;-71
2022/01/17 09:31:47;;;;;;;0.00;0.00;;;;;;;6.50;47.78;99268.75;5110997;28;20054;-71
2022/01/17 09:34:13;;;;;;;0.10;0.10;;;;;;;6.64;47.70;99277.19;5109985;28;20609;-70
2022/01/17 09:36:39;;;;;;;0.00;0.00;;;;;;;6.67;47.41;99266.88;5109864;28;20019;-71
2022/01/17 09:39:07;;;;;;;0.00;0.00;;;;;;;6.69;46.95;99256.03;5110485;28;20028;-70
2022/01/17 09:41:33;;;;;;;0.00;0.00;;;;;;;6.81;48.40;99254.06;5111399;28;20036;-70
2022/01/17 09:44:00;;;;;;;0.00;0.00;;;;;;;6.88;47.13;99246.69;5110848;28;20063;-72
2022/01/17 09:46:32;;;;;;;0.00;0.00;;;;;;;6.96;46.99;99252.66;5109755;28;20429;-72
2022/01/17 09:49:14;;;;;;;0.00;0.00;;;;;;;7.06;46.82;99250.09;5110719;28;20023;-72
2022/01/17 09:54:26;;;;;;;0.00;0.00;;;;;;;7.17;46.63;99235.84;5111062;28;20073;-72
2022/01/17 09:56:54;;;;;;;0.00;0.00;;;;;;;7.24;46.47;99246.31;5110685;28;20027;-72
2022/01/17 09:59:20;;;;;;;0.00;0.00;;;;;;;7.27;46.77;99237.03;5110642;28;20501;-72
2022/01/17 10:01:46;;;;;;;0.05;0.05;;;;;;;7.32;46.24;99221.94;5110516;28;20031;-70
2022/01/17 10:04:13;;;;;;;0.00;0.00;;;;;;;7.36;46.32;99214.25;5110605;28;20404;-72
2022/01/17 10:06:40;;;;;;;0.00;0.00;;;;;;;7.49;46.45;99223.69;5110859;28;20024;-72
2022/01/17 10:09:21;;;;;;;0.00;0.00;;;;;;;7.49;44.69;99205.06;5113801;28;20042;-71
2022/01/17 10:12:14;;;;;;;0.00;0.00;;;;;;;7.59;44.89;99199.88;5114515;28;20265;-71
2022/01/17 10:14:59;;;;;;;0.00;0.00;;;;;;;7.76;43.68;99198.94;5114560;28;20079;-71
2022/01/17 10:17:45;;;;;;;0.00;0.00;;;;;;;7.89;43.41;99189.72;5113090;28;20119;-71
2022/01/17 10:20:14;;;;;;;0.10;0.10;;;;;;;7.95;44.20;99183.38;5113903;28;20486;-71
2022/01/17 10:22:50;;;;;;;0.00;0.00;;;;;;;8.02;44.74;99184.75;5114069;28;20024;-71
2022/01/17 10:25:26;;;;;;;0.00;0.00;;;;;;;8.16;44.23;99179.78;5114318;28;20027;-71
2022/01/17 10:28:33;;;;;;;0.77;0.77;;;;;;;8.29;44.42;99169.75;5114079;28;20115;-72
2022/01/17 10:31:34;;;;;;;0.10;0.10;;;;;;;8.35;44.39;99158.06;5113986;28;20024;-71
2022/01/17 10:36:47;;;;;;;0.03;0.03;;;;;;;8.56;42.58;99140.34;5113709;28;20414;-72
2022/01/17 10:39:12;;;;;;;0.00;0.00;;;;;;;8.48;42.46;99106.16;5113648;28;20035;-71
2022/01/17 10:41:38;;;;;;;0.00;0.00;;;;;;;8.65;41.35;99129.97;5113916;28;20015;-71
2022/01/17 10:44:04;;;;;;;0.00;0.00;;;;;;;8.62;41.29;99103.84;5112396;28;20122;-72
2022/01/17 10:46:30;;;;;;;0.00;0.00;;;;;;;8.85;41.40;99137.25;5113789;28;20027;-70
2022/01/17 10:48:56;;;;;;;0.00;0.00;;;;;;;8.90;42.39;99120.44;5113618;28;20495;-72
2022/01/17 10:51:33;;;;;;;1.52;0.45;;;;;;;8.99;41.91;99123.41;5113613;28;20107;-73
2022/01/17 10:54:09;;;;;;;0.20;0.20;;;;;;;8.99;41.66;99110.88;5112251;28;20031;-72
2022/01/17 10:56:47;;;;;;;0.30;0.30;;;;;;;9.11;39.51;99115.97;5112431;28;20023;-72
2022/01/17 10:59:25;;;;;;;0.00;0.00;;;;;;;9.16;40.11;99115.97;5111892;28;20450;-72
2022/01/17 11:01:53;;;;;;;0.00;0.00;;;;;;;9.23;40.42;99118.41;5113443;28;20036;-72
2022/01/17 11:04:33;;;;;;;0.10;0.10;;;;;;;9.36;39.83;99120.53;5113149;28;20019;-72
2022/01/17 11:07:08;;;;;;;0.00;0.00;;;;;;;9.40;39.96;99120.81;5113221;28;20030;-72
2022/01/17 11:09:40;;;;;;;0.00;0.00;;;;;;;9.46;40.21;99119.75;5113123;28;20059;-72
2022/01/17 11:12:11;;;;;;;0.00;0.00;;;;;;;9.46;40.77;99090.38;5112876;28;20039;-72
2022/01/17 11:14:38;;;;;;;0.10;0.10;;;;;;;9.48;40.66;99080.22;5113257;28;20057;-72
2022/01/17 11:17:37;;;;;;;0.00;0.00;;;;;;;9.61;40.50;99093.03;5113124;28;20081;-72
2022/01/17 11:20:08;;;;;;;0.20;0.20;;;;;;;9.65;40.16;99076.47;5111376;28;20019;-72
2022/01/17 11:22:39;;;;;;;0.00;0.00;;;;;;;9.66;40.27;99080.75;5113092;28;20054;-72
2022/01/17 11:25:08;;;;;;;0.03;0.03;;;;;;;9.71;38.41;99084.19;5112786;28;20055;-72
2022/01/17 11:27:34;;;;;;;0.00;0.00;;;;;;;9.70;38.94;99084.47;5112816;28;20028;-72
2022/01/17 11:30:00;;;;;;;0.03;0.03;;;;;;;9.73;38.73;99089.31;5112449;28;20502;-71
2022/01/17 11:32:26;;;;;;;0.00;0.00;;;;;;;9.73;39.44;99081.28;5112646;28;20403;-71
2022/01/17 11:34:54;;;;;;;0.22;0.22;;;;;;;9.82;38.62;99097.56;5112786;28;20049;-71
2022/01/17 11:37:20;;;;;;;0.03;0.03;;;;;;;9.86;37.49;99109.28;5112889;28;20027;-71
2022/01/17 11:39:51;;;;;;;0.00;0.00;;;;;;;9.91;38.54;99112.78;5112697;28;20096;-71
2022/01/17 11:42:38;;;;;;;0.00;0.00;;;;;;;9.96;38.82;99125.31;5111024;28;20059;-72
2022/01/17 11:45:22;;;;;;;0.10;0.10;;;;;;;10.02;38.98;99115.41;5111121;28;20031;-71
2022/01/17 11:47:56;;;;;;;0.08;0.08;;;;;;;9.89;38.85;99090.06;5112463;28;20028;-71
2022/01/17 11:50:27;;;;;;;0.10;0.10;;;;;;;10.06;38.24;99093.22;5112369;28;20039;-72
2022/01/17 11:53:00;;;;;;;0.00;0.00;;;;;;;10.07;38.55;99094.03;5112326;28;20047;-72
2022/01/17 11:58:24;;;;;;;0.00;0.00;;;;;;;10.12;38.98;99072.66;5111911;28;20039;-71
2022/01/17 12:01:18;;;;;;;0.00;0.00;;;;;;;10.15;39.52;99068.63;5111454;28;20020;-71
2022/01/17 12:03:55;;;;;;;0.20;0.20;;;;;;;10.14;39.43;99080.38;5111803;28;20028;-72
2022/01/17 12:06:33;;;;;;;0.00;0.00;;;;;;;9.99;38.59;99060.66;5111611;28;20452;-71